sensor_id;sensor_type;location;lat;lon;timestamp;P1;durP1;ratioP1;P2;durP2;ratioP2
3355;SDS011;1691;52.486;13.374;2023-07-24T00:02:25;3.03;;;2.93;;
3355;SDS011;1691;52.486;13.374;2023-07-24T00:04:52;3.33;;;3.23;;
3355;SDS011;1691;52.486;13.374;2023-07-24T00:07:20;3.67;;;3.37;;
3355;SDS011;1691;52.486;13.374;2023-07-24T00:09:46;3.20;;;2.90;;
3355;SDS011;1691;52.486;13.374;2023-07-24T00:12:14;3.80;;;3.60;;
3355;SDS011;1691;52.486;13.374;2023-07-24T00:14:40;5.10;;;4.07;;
3355;SDS011;1691;52.486;13.374;2023-07-24T00:17:07;5.03;;;3.50;;
3355;SDS011;1691;52.486;13.374;2023-07-24T00:19:34;3.50;;;3.30;;
3355;SDS011;1691;52.486;13.374;2023-07-24T00:22:01;3.03;;;2.87;;
3355;SDS011;1691;52.486;13.374;2023-07-24T00:24:29;12.60;;;3.40;;
3355;SDS011;1691;52.486;13.374;2023-07-24T00:26:56;3.30;;;3.10;;
3355;SDS011;1691;52.486;13.374;2023-07-24T00:29:23;3.67;;;3.37;;
3355;SDS011;1691;52.486;13.374;2023-07-24T00:31:50;2.90;;;2.80;;
3355;SDS011;1691;52.486;13.374;2023-07-24T00:34:17;3.43;;;3.33;;
3355;SDS011;1691;52.486;13.374;2023-07-24T00:36:43;3.40;;;3.20;;
3355;SDS011;1691;52.486;13.374;2023-07-24T00:39:10;3.70;;;3.50;;
3355;SDS011;1691;52.486;13.374;2023-07-24T00:41:37;3.93;;;2.73;;
3355;SDS011;1691;52.486;13.374;2023-07-24T00:44:04;3.33;;;3.13;;
3355;SDS011;1691;52.486;13.374;2023-07-24T00:46:31;3.37;;;3.20;;
3355;SDS011;1691;52.486;13.374;2023-07-24T00:49:00;3.80;;;3.60;;
3355;SDS011;1691;52.486;13.374;2023-07-24T00:51:28;3.33;;;2.80;;
3355;SDS011;1691;52.486;13.374;2023-07-24T00:54:00;4.40;;;2.80;;
3355;SDS011;1691;52.486;13.374;2023-07-24T00:56:28;3.57;;;2.70;;
3355;SDS011;1691;52.486;13.374;2023-07-24T00:58:57;3.77;;;3.57;;
3355;SDS011;1691;52.486;13.374;2023-07-24T01:01:25;3.73;;;3.63;;
3355;SDS011;1691;52.486;13.374;2023-07-24T01:03:52;7.67;;;3.73;;
3355;SDS011;1691;52.486;13.374;2023-07-24T01:06:20;3.50;;;3.40;;
3355;SDS011;1691;52.486;13.374;2023-07-24T01:08:47;4.17;;;3.90;;
3355;SDS011;1691;52.486;13.374;2023-07-24T01:11:19;6.13;;;3.60;;
3355;SDS011;1691;52.486;13.374;2023-07-24T01:14:04;4.90;;;3.70;;
3355;SDS011;1691;52.486;13.374;2023-07-24T01:16:40;3.50;;;3.40;;
3355;SDS011;1691;52.486;13.374;2023-07-24T01:19:16;3.40;;;3.30;;
3355;SDS011;1691;52.486;13.374;2023-07-24T01:22:01;5.10;;;3.67;;
3355;SDS011;1691;52.486;13.374;2023-07-24T01:27:41;3.80;;;3.50;;
3355;SDS011;1691;52.486;13.374;2023-07-24T01:30:09;3.43;;;3.33;;
3355;SDS011;1691;52.486;13.374;2023-07-24T01:32:37;5.50;;;3.23;;
3355;SDS011;1691;52.486;13.374;2023-07-24T01:35:05;3.40;;;3.20;;
3355;SDS011;1691;52.486;13.374;2023-07-24T01:37:33;3.27;;;3.07;;
3355;SDS011;1691;52.486;13.374;2023-07-24T01:40:02;3.23;;;2.97;;
3355;SDS011;1691;52.486;13.374;2023-07-24T01:42:29;4.03;;;3.83;;
3355;SDS011;1691;52.486;13.374;2023-07-24T01:44:57;3.17;;;2.97;;
3355;SDS011;1691;52.486;13.374;2023-07-24T01:47:24;3.93;;;3.10;;
3355;SDS011;1691;52.486;13.374;2023-07-24T01:49:51;3.70;;;3.40;;
3355;SDS011;1691;52.486;13.374;2023-07-24T01:52:18;5.73;;;2.60;;
3355;SDS011;1691;52.486;13.374;2023-07-24T01:54:44;3.50;;;3.40;;
3355;SDS011;1691;52.486;13.374;2023-07-24T01:57:11;16.10;;;3.30;;
3355;SDS011;1691;52.486;13.374;2023-07-24T01:59:38;11.10;;;3.17;;
3355;SDS011;1691;52.486;13.374;2023-07-24T02:02:05;3.23;;;3.03;;
3355;SDS011;1691;52.486;13.374;2023-07-24T02:04:32;3.27;;;2.93;;
3355;SDS011;1691;52.486;13.374;2023-07-24T02:06:58;3.80;;;3.50;;
3355;SDS011;1691;52.486;13.374;2023-07-24T02:09:25;7.73;;;3.53;;
3355;SDS011;1691;52.486;13.374;2023-07-24T02:11:52;16.20;;;4.93;;
3355;SDS011;1691;52.486;13.374;2023-07-24T02:14:19;8.00;;;3.77;;
3355;SDS011;1691;52.486;13.374;2023-07-24T02:16:47;3.83;;;3.43;;
3355;SDS011;1691;52.486;13.374;2023-07-24T02:19:13;3.30;;;3.20;;
3355;SDS011;1691;52.486;13.374;2023-07-24T02:21:40;4.53;;;3.40;;
3355;SDS011;1691;52.486;13.374;2023-07-24T02:24:07;3.63;;;3.10;;
3355;SDS011;1691;52.486;13.374;2023-07-24T02:26:34;3.70;;;3.50;;
3355;SDS011;1691;52.486;13.374;2023-07-24T02:29:01;4.23;;;2.97;;
3355;SDS011;1691;52.486;13.374;2023-07-24T02:31:27;4.90;;;3.17;;
3355;SDS011;1691;52.486;13.374;2023-07-24T02:33:54;2.93;;;2.80;;
3355;SDS011;1691;52.486;13.374;2023-07-24T02:36:21;5.40;;;3.43;;
3355;SDS011;1691;52.486;13.374;2023-07-24T02:38:48;2.77;;;2.60;;
3355;SDS011;1691;52.486;13.374;2023-07-24T02:41:15;4.50;;;2.70;;
3355;SDS011;1691;52.486;13.374;2023-07-24T02:43:42;3.73;;;3.40;;
3355;SDS011;1691;52.486;13.374;2023-07-24T02:46:09;15.17;;;3.43;;
3355;SDS011;1691;52.486;13.374;2023-07-24T02:48:35;3.70;;;2.93;;
3355;SDS011;1691;52.486;13.374;2023-07-24T02:51:02;3.83;;;2.70;;
3355;SDS011;1691;52.486;13.374;2023-07-24T02:53:29;3.03;;;2.73;;
3355;SDS011;1691;52.486;13.374;2023-07-24T02:55:56;3.07;;;2.87;;
3355;SDS011;1691;52.486;13.374;2023-07-24T02:58:23;2.53;;;2.43;;
3355;SDS011;1691;52.486;13.374;2023-07-24T03:00:49;2.90;;;2.43;;
3355;SDS011;1691;52.486;13.374;2023-07-24T03:03:16;2.83;;;2.13;;
3355;SDS011;1691;52.486;13.374;2023-07-24T03:05:43;2.63;;;2.43;;
3355;SDS011;1691;52.486;13.374;2023-07-24T03:08:10;2.83;;;2.53;;
3355;SDS011;1691;52.486;13.374;2023-07-24T03:10:39;2.90;;;2.73;;
3355;SDS011;1691;52.486;13.374;2023-07-24T03:13:07;2.30;;;2.20;;
3355;SDS011;1691;52.486;13.374;2023-07-24T03:15:34;3.30;;;2.30;;
3355;SDS011;1691;52.486;13.374;2023-07-24T03:18:01;2.13;;;2.03;;
3355;SDS011;1691;52.486;13.374;2023-07-24T03:20:27;5.93;;;2.20;;
3355;SDS011;1691;52.486;13.374;2023-07-24T03:22:54;4.70;;;2.30;;
3355;SDS011;1691;52.486;13.374;2023-07-24T03:25:21;3.53;;;2.10;;
3355;SDS011;1691;52.486;13.374;2023-07-24T03:27:48;8.63;;;2.07;;
3355;SDS011;1691;52.486;13.374;2023-07-24T03:30:15;2.83;;;2.70;;
3355;SDS011;1691;52.486;13.374;2023-07-24T03:32:42;6.67;;;2.90;;
3355;SDS011;1691;52.486;13.374;2023-07-24T03:35:10;2.10;;;2.00;;
3355;SDS011;1691;52.486;13.374;2023-07-24T03:37:36;1.90;;;1.80;;
3355;SDS011;1691;52.486;13.374;2023-07-24T03:40:03;3.20;;;1.80;;
3355;SDS011;1691;52.486;13.374;2023-07-24T03:42:31;18.43;;;2.83;;
3355;SDS011;1691;52.486;13.374;2023-07-24T03:44:58;3.20;;;2.23;;
3355;SDS011;1691;52.486;13.374;2023-07-24T03:47:25;2.30;;;1.90;;
3355;SDS011;1691;52.486;13.374;2023-07-24T03:49:52;3.47;;;2.00;;
3355;SDS011;1691;52.486;13.374;2023-07-24T03:52:19;2.00;;;1.90;;
3355;SDS011;1691;52.486;13.374;2023-07-24T03:54:46;2.03;;;1.93;;
3355;SDS011;1691;52.486;13.374;2023-07-24T03:57:13;2.33;;;2.23;;
3355;SDS011;1691;52.486;13.374;2023-07-24T03:59:40;2.23;;;2.13;;
3355;SDS011;1691;52.486;13.374;2023-07-24T04:02:06;3.43;;;2.80;;
3355;SDS011;1691;52.486;13.374;2023-07-24T04:04:36;5.70;;;2.33;;
3355;SDS011;1691;52.486;13.374;2023-07-24T04:07:03;2.23;;;2.03;;
3355;SDS011;1691;52.486;13.374;2023-07-24T04:09:31;2.00;;;1.90;;
3355;SDS011;1691;52.486;13.374;2023-07-24T04:11:58;1.93;;;1.83;;
3355;SDS011;1691;52.486;13.374;2023-07-24T04:14:25;2.70;;;2.50;;
3355;SDS011;1691;52.486;13.374;2023-07-24T04:16:52;6.47;;;3.80;;
3355;SDS011;1691;52.486;13.374;2023-07-24T04:19:19;10.13;;;3.60;;
3355;SDS011;1691;52.486;13.374;2023-07-24T04:21:46;2.50;;;2.30;;
3355;SDS011;1691;52.486;13.374;2023-07-24T04:24:12;2.33;;;2.23;;
3355;SDS011;1691;52.486;13.374;2023-07-24T04:26:39;2.30;;;2.20;;
3355;SDS011;1691;52.486;13.374;2023-07-24T04:29:06;2.53;;;2.23;;
3355;SDS011;1691;52.486;13.374;2023-07-24T04:31:33;2.03;;;1.93;;
3355;SDS011;1691;52.486;13.374;2023-07-24T04:34:00;6.63;;;2.30;;
3355;SDS011;1691;52.486;13.374;2023-07-24T04:36:27;2.17;;;2.07;;
3355;SDS011;1691;52.486;13.374;2023-07-24T04:38:54;2.57;;;2.37;;
3355;SDS011;1691;52.486;13.374;2023-07-24T04:41:21;2.50;;;2.40;;
3355;SDS011;1691;52.486;13.374;2023-07-24T04:43:48;3.80;;;1.80;;
3355;SDS011;1691;52.486;13.374;2023-07-24T04:46:14;2.30;;;2.20;;
3355;SDS011;1691;52.486;13.374;2023-07-24T04:48:41;2.33;;;2.23;;
3355;SDS011;1691;52.486;13.374;2023-07-24T04:51:08;2.00;;;1.90;;
3355;SDS011;1691;52.486;13.374;2023-07-24T04:53:35;1.80;;;1.70;;
3355;SDS011;1691;52.486;13.374;2023-07-24T04:56:02;7.10;;;1.63;;
3355;SDS011;1691;52.486;13.374;2023-07-24T04:58:28;2.00;;;1.90;;
3355;SDS011;1691;52.486;13.374;2023-07-24T05:00:55;3.80;;;1.77;;
3355;SDS011;1691;52.486;13.374;2023-07-24T05:03:22;2.07;;;1.97;;
3355;SDS011;1691;52.486;13.374;2023-07-24T05:05:53;1.97;;;1.60;;
3355;SDS011;1691;52.486;13.374;2023-07-24T05:08:22;1.80;;;1.70;;
3355;SDS011;1691;52.486;13.374;2023-07-24T05:10:56;2.17;;;2.07;;
3355;SDS011;1691;52.486;13.374;2023-07-24T05:13:23;1.73;;;1.63;;
3355;SDS011;1691;52.486;13.374;2023-07-24T05:15:50;2.53;;;1.67;;
3355;SDS011;1691;52.486;13.374;2023-07-24T05:18:17;1.40;;;1.30;;
3355;SDS011;1691;52.486;13.374;2023-07-24T05:20:47;21.43;;;15.03;;
3355;SDS011;1691;52.486;13.374;2023-07-24T05:23:15;9.73;;;8.70;;
3355;SDS011;1691;52.486;13.374;2023-07-24T05:25:41;3.90;;;3.67;;
3355;SDS011;1691;52.486;13.374;2023-07-24T05:28:09;10.60;;;9.63;;
3355;SDS011;1691;52.486;13.374;2023-07-24T05:30:36;8.40;;;7.70;;
3355;SDS011;1691;52.486;13.374;2023-07-24T05:33:03;0.97;;;0.97;;
3355;SDS011;1691;52.486;13.374;2023-07-24T05:35:30;4.83;;;1.17;;
3355;SDS011;1691;52.486;13.374;2023-07-24T05:37:57;1.03;;;0.93;;
3355;SDS011;1691;52.486;13.374;2023-07-24T05:40:23;1.33;;;0.90;;
3355;SDS011;1691;52.486;13.374;2023-07-24T05:42:50;0.90;;;0.90;;
3355;SDS011;1691;52.486;13.374;2023-07-24T05:45:17;1.37;;;1.27;;
3355;SDS011;1691;52.486;13.374;2023-07-24T05:47:44;1.40;;;0.80;;
3355;SDS011;1691;52.486;13.374;2023-07-24T05:50:11;5.33;;;1.20;;
3355;SDS011;1691;52.486;13.374;2023-07-24T05:52:40;1.27;;;1.17;;
3355;SDS011;1691;52.486;13.374;2023-07-24T05:55:07;1.07;;;0.97;;
3355;SDS011;1691;52.486;13.374;2023-07-24T05:57:34;1.97;;;1.10;;
3355;SDS011;1691;52.486;13.374;2023-07-24T06:00:03;11.33;;;1.10;;
3355;SDS011;1691;52.486;13.374;2023-07-24T06:02:31;8.70;;;1.33;;
3355;SDS011;1691;52.486;13.374;2023-07-24T06:04:58;3.10;;;1.07;;
3355;SDS011;1691;52.486;13.374;2023-07-24T06:07:25;1.40;;;1.30;;
3355;SDS011;1691;52.486;13.374;2023-07-24T06:09:51;1.93;;;1.67;;
3355;SDS011;1691;52.486;13.374;2023-07-24T06:12:18;6.30;;;1.10;;
3355;SDS011;1691;52.486;13.374;2023-07-24T06:14:45;7.10;;;1.20;;
3355;SDS011;1691;52.486;13.374;2023-07-24T06:17:12;1.30;;;1.20;;
3355;SDS011;1691;52.486;13.374;2023-07-24T06:19:39;2.33;;;1.70;;
3355;SDS011;1691;52.486;13.374;2023-07-24T06:22:06;0.80;;;0.80;;
3355;SDS011;1691;52.486;13.374;2023-07-24T06:24:33;1.10;;;1.10;;
3355;SDS011;1691;52.486;13.374;2023-07-24T06:27:00;1.00;;;0.90;;
3355;SDS011;1691;52.486;13.374;2023-07-24T06:29:27;1.13;;;1.13;;
3355;SDS011;1691;52.486;13.374;2023-07-24T06:31:54;11.17;;;1.30;;
3355;SDS011;1691;52.486;13.374;2023-07-24T06:34:21;1.00;;;1.00;;
3355;SDS011;1691;52.486;13.374;2023-07-24T06:36:48;1.10;;;1.10;;
3355;SDS011;1691;52.486;13.374;2023-07-24T06:39:15;1.37;;;1.37;;
3355;SDS011;1691;52.486;13.374;2023-07-24T06:41:42;1.07;;;1.07;;
3355;SDS011;1691;52.486;13.374;2023-07-24T06:44:09;2.23;;;1.10;;
3355;SDS011;1691;52.486;13.374;2023-07-24T06:46:35;1.27;;;1.20;;
3355;SDS011;1691;52.486;13.374;2023-07-24T06:49:02;1.10;;;1.10;;
3355;SDS011;1691;52.486;13.374;2023-07-24T06:51:29;0.97;;;0.87;;
3355;SDS011;1691;52.486;13.374;2023-07-24T06:53:56;3.43;;;1.33;;
3355;SDS011;1691;52.486;13.374;2023-07-24T06:56:23;4.50;;;4.23;;
3355;SDS011;1691;52.486;13.374;2023-07-24T06:58:50;3.03;;;2.90;;
3355;SDS011;1691;52.486;13.374;2023-07-24T07:01:17;1.20;;;1.20;;
3355;SDS011;1691;52.486;13.374;2023-07-24T07:03:44;1.13;;;1.00;;
3355;SDS011;1691;52.486;13.374;2023-07-24T07:06:11;1.10;;;1.10;;
3355;SDS011;1691;52.486;13.374;2023-07-24T07:08:41;6.87;;;1.20;;
3355;SDS011;1691;52.486;13.374;2023-07-24T07:11:08;1.90;;;1.17;;
3355;SDS011;1691;52.486;13.374;2023-07-24T07:13:35;1.07;;;1.07;;
3355;SDS011;1691;52.486;13.374;2023-07-24T08:05:08;1.07;;;1.07;;
3355;SDS011;1691;52.486;13.374;2023-07-24T08:07:45;1.30;;;1.20;;
3355;SDS011;1691;52.486;13.374;2023-07-24T08:10:12;1.20;;;0.90;;
3355;SDS011;1691;52.486;13.374;2023-07-24T08:12:42;1.37;;;1.27;;
3355;SDS011;1691;52.486;13.374;2023-07-24T08:15:10;1.50;;;1.40;;
3355;SDS011;1691;52.486;13.374;2023-07-24T08:17:38;1.23;;;1.17;;
3355;SDS011;1691;52.486;13.374;2023-07-24T08:20:05;1.37;;;1.00;;
3355;SDS011;1691;52.486;13.374;2023-07-24T08:22:32;1.83;;;0.80;;
3355;SDS011;1691;52.486;13.374;2023-07-24T08:24:59;8.23;;;7.73;;
3355;SDS011;1691;52.486;13.374;2023-07-24T08:27:26;8.37;;;7.97;;
3355;SDS011;1691;52.486;13.374;2023-07-24T08:29:53;1.37;;;0.80;;
3355;SDS011;1691;52.486;13.374;2023-07-24T08:32:20;0.82;;;0.82;;
3355;SDS011;1691;52.486;13.374;2023-07-24T08:34:47;1.00;;;1.00;;
3355;SDS011;1691;52.486;13.374;2023-07-24T08:37:14;0.93;;;0.93;;
3355;SDS011;1691;52.486;13.374;2023-07-24T08:39:41;0.80;;;0.80;;
3355;SDS011;1691;52.486;13.374;2023-07-24T08:42:09;1.10;;;1.10;;
3355;SDS011;1691;52.486;13.374;2023-07-24T08:44:37;1.20;;;1.10;;
3355;SDS011;1691;52.486;13.374;2023-07-24T08:47:04;1.50;;;1.50;;
3355;SDS011;1691;52.486;13.374;2023-07-24T08:49:36;1.50;;;1.40;;
3355;SDS011;1691;52.486;13.374;2023-07-24T08:52:05;3.57;;;0.93;;
3355;SDS011;1691;52.486;13.374;2023-07-24T08:54:35;1.20;;;1.20;;
3355;SDS011;1691;52.486;13.374;2023-07-24T08:57:06;2.40;;;1.20;;
3355;SDS011;1691;52.486;13.374;2023-07-24T08:59:34;6.67;;;1.43;;
3355;SDS011;1691;52.486;13.374;2023-07-24T09:02:01;2.07;;;1.37;;
3355;SDS011;1691;52.486;13.374;2023-07-24T09:04:28;1.40;;;1.30;;
3355;SDS011;1691;52.486;13.374;2023-07-24T09:06:56;1.50;;;1.40;;
3355;SDS011;1691;52.486;13.374;2023-07-24T09:09:29;3.70;;;1.17;;
3355;SDS011;1691;52.486;13.374;2023-07-24T09:11:57;5.50;;;1.20;;
3355;SDS011;1691;52.486;13.374;2023-07-24T09:14:27;1.40;;;1.30;;
3355;SDS011;1691;52.486;13.374;2023-07-24T09:17:05;1.67;;;1.57;;
3355;SDS011;1691;52.486;13.374;2023-07-24T09:19:37;1.37;;;1.27;;
3355;SDS011;1691;52.486;13.374;2023-07-24T09:22:08;2.70;;;1.30;;
3355;SDS011;1691;52.486;13.374;2023-07-24T09:24:36;1.40;;;1.30;;
3355;SDS011;1691;52.486;13.374;2023-07-24T09:27:06;1.37;;;1.27;;
3355;SDS011;1691;52.486;13.374;2023-07-24T09:29:34;2.70;;;1.23;;
3355;SDS011;1691;52.486;13.374;2023-07-24T09:32:01;3.20;;;1.40;;
3355;SDS011;1691;52.486;13.374;2023-07-24T09:34:28;4.00;;;1.37;;
3355;SDS011;1691;52.486;13.374;2023-07-24T09:36:56;1.83;;;1.70;;
3355;SDS011;1691;52.486;13.374;2023-07-24T09:39:26;1.90;;;1.80;;
3355;SDS011;1691;52.486;13.374;2023-07-24T09:42:02;1.77;;;1.67;;
3355;SDS011;1691;52.486;13.374;2023-07-24T09:44:31;2.67;;;1.70;;
3355;SDS011;1691;52.486;13.374;2023-07-24T09:46:58;1.60;;;1.50;;
3355;SDS011;1691;52.486;13.374;2023-07-24T09:49:46;1.90;;;1.80;;
3355;SDS011;1691;52.486;13.374;2023-07-24T09:52:13;3.63;;;2.23;;
3355;SDS011;1691;52.486;13.374;2023-07-24T09:54:48;2.20;;;2.00;;
3355;SDS011;1691;52.486;13.374;2023-07-24T09:57:19;1.40;;;1.30;;
3355;SDS011;1691;52.486;13.374;2023-07-24T09:59:48;11.80;;;1.90;;
3355;SDS011;1691;52.486;13.374;2023-07-24T10:02:15;1.97;;;1.87;;
3355;SDS011;1691;52.486;13.374;2023-07-24T10:04:44;1.77;;;1.67;;
3355;SDS011;1691;52.486;13.374;2023-07-24T10:07:12;2.47;;;1.70;;
3355;SDS011;1691;52.486;13.374;2023-07-24T10:09:40;3.40;;;2.00;;
3355;SDS011;1691;52.486;13.374;2023-07-24T10:12:09;3.87;;;1.90;;
3355;SDS011;1691;52.486;13.374;2023-07-24T10:14:36;1.87;;;1.73;;
3355;SDS011;1691;52.486;13.374;2023-07-24T10:17:04;5.13;;;2.03;;
3355;SDS011;1691;52.486;13.374;2023-07-24T10:19:41;3.80;;;2.10;;
3355;SDS011;1691;52.486;13.374;2023-07-24T10:22:18;1.80;;;1.70;;
3355;SDS011;1691;52.486;13.374;2023-07-24T10:24:46;2.00;;;1.90;;
3355;SDS011;1691;52.486;13.374;2023-07-24T10:27:13;1.87;;;1.77;;
3355;SDS011;1691;52.486;13.374;2023-07-24T10:29:40;2.47;;;2.00;;
3355;SDS011;1691;52.486;13.374;2023-07-24T10:32:16;2.60;;;2.40;;
3355;SDS011;1691;52.486;13.374;2023-07-24T10:34:44;3.40;;;3.30;;
3355;SDS011;1691;52.486;13.374;2023-07-24T10:37:11;2.20;;;2.10;;
3355;SDS011;1691;52.486;13.374;2023-07-24T10:39:39;2.80;;;2.57;;
3355;SDS011;1691;52.486;13.374;2023-07-24T10:42:08;2.80;;;2.70;;
3355;SDS011;1691;52.486;13.374;2023-07-24T10:44:36;3.63;;;2.57;;
3355;SDS011;1691;52.486;13.374;2023-07-24T10:47:03;2.73;;;2.63;;
3355;SDS011;1691;52.486;13.374;2023-07-24T10:49:30;2.97;;;2.60;;
3355;SDS011;1691;52.486;13.374;2023-07-24T10:51:57;3.43;;;2.70;;
3355;SDS011;1691;52.486;13.374;2023-07-24T10:54:25;2.70;;;2.60;;
3355;SDS011;1691;52.486;13.374;2023-07-24T10:56:58;3.17;;;2.97;;
3355;SDS011;1691;52.486;13.374;2023-07-24T10:59:35;5.70;;;3.00;;
3355;SDS011;1691;52.486;13.374;2023-07-24T11:02:06;2.90;;;2.80;;
3355;SDS011;1691;52.486;13.374;2023-07-24T11:04:34;3.30;;;3.03;;
3355;SDS011;1691;52.486;13.374;2023-07-24T11:07:01;5.57;;;3.13;;
3355;SDS011;1691;52.486;13.374;2023-07-24T11:09:38;7.57;;;3.73;;
3355;SDS011;1691;52.486;13.374;2023-07-24T11:12:10;4.30;;;3.30;;
3355;SDS011;1691;52.486;13.374;2023-07-24T11:14:51;5.10;;;3.70;;
3355;SDS011;1691;52.486;13.374;2023-07-24T11:17:32;3.53;;;3.33;;
3355;SDS011;1691;52.486;13.374;2023-07-24T11:20:08;5.97;;;3.00;;
3355;SDS011;1691;52.486;13.374;2023-07-24T11:22:40;3.70;;;3.47;;
3355;SDS011;1691;52.486;13.374;2023-07-24T11:25:08;4.93;;;3.20;;
3355;SDS011;1691;52.486;13.374;2023-07-24T11:27:41;3.87;;;3.50;;
3355;SDS011;1691;52.486;13.374;2023-07-24T11:30:18;4.57;;;4.17;;
3355;SDS011;1691;52.486;13.374;2023-07-24T11:32:46;3.83;;;3.60;;
3355;SDS011;1691;52.486;13.374;2023-07-24T11:35:14;4.07;;;3.73;;
3355;SDS011;1691;52.486;13.374;2023-07-24T11:37:41;3.90;;;3.50;;
3355;SDS011;1691;52.486;13.374;2023-07-24T11:40:08;4.67;;;2.87;;
3355;SDS011;1691;52.486;13.374;2023-07-24T11:42:37;3.53;;;3.33;;
3355;SDS011;1691;52.486;13.374;2023-07-24T11:45:11;8.93;;;3.20;;
3355;SDS011;1691;52.486;13.374;2023-07-24T11:47:47;4.73;;;4.40;;
3355;SDS011;1691;52.486;13.374;2023-07-24T11:50:16;3.77;;;3.47;;
3355;SDS011;1691;52.486;13.374;2023-07-24T11:52:44;4.63;;;4.30;;
3355;SDS011;1691;52.486;13.374;2023-07-24T11:55:14;4.23;;;3.83;;
3355;SDS011;1691;52.486;13.374;2023-07-24T11:57:42;4.60;;;4.20;;
3355;SDS011;1691;52.486;13.374;2023-07-24T12:00:19;4.50;;;4.13;;
3355;SDS011;1691;52.486;13.374;2023-07-24T12:02:47;5.57;;;4.20;;
3355;SDS011;1691;52.486;13.374;2023-07-24T12:05:14;4.27;;;4.07;;
3355;SDS011;1691;52.486;13.374;2023-07-24T12:07:42;4.43;;;3.90;;
3355;SDS011;1691;52.486;13.374;2023-07-24T12:10:12;7.33;;;4.17;;
3355;SDS011;1691;52.486;13.374;2023-07-24T12:12:43;4.10;;;3.90;;
3355;SDS011;1691;52.486;13.374;2023-07-24T12:15:12;7.10;;;4.30;;
3355;SDS011;1691;52.486;13.374;2023-07-24T12:17:40;3.90;;;3.70;;
3355;SDS011;1691;52.486;13.374;2023-07-24T12:20:08;4.20;;;4.00;;
3355;SDS011;1691;52.486;13.374;2023-07-24T12:22:36;7.57;;;4.10;;
3355;SDS011;1691;52.486;13.374;2023-07-24T12:25:04;3.90;;;3.70;;
3355;SDS011;1691;52.486;13.374;2023-07-24T12:27:32;9.80;;;5.90;;
3355;SDS011;1691;52.486;13.374;2023-07-24T12:29:59;6.83;;;6.30;;
3355;SDS011;1691;52.486;13.374;2023-07-24T12:32:27;4.80;;;4.50;;
3355;SDS011;1691;52.486;13.374;2023-07-24T12:34:54;7.10;;;4.10;;
3355;SDS011;1691;52.486;13.374;2023-07-24T12:37:20;13.43;;;3.77;;
3355;SDS011;1691;52.486;13.374;2023-07-24T12:39:47;9.70;;;4.83;;
3355;SDS011;1691;52.486;13.374;2023-07-24T12:42:15;12.37;;;4.77;;
3355;SDS011;1691;52.486;13.374;2023-07-24T12:44:42;6.77;;;5.20;;
3355;SDS011;1691;52.486;13.374;2023-07-24T12:47:10;6.17;;;4.07;;
3355;SDS011;1691;52.486;13.374;2023-07-24T12:49:38;4.80;;;4.37;;
3355;SDS011;1691;52.486;13.374;2023-07-24T12:52:05;4.80;;;4.40;;
3355;SDS011;1691;52.486;13.374;2023-07-24T12:54:33;4.63;;;4.07;;
3355;SDS011;1691;52.486;13.374;2023-07-24T12:57:21;15.33;;;5.40;;
3355;SDS011;1691;52.486;13.374;2023-07-24T12:59:48;13.17;;;5.10;;
3355;SDS011;1691;52.486;13.374;2023-07-24T13:02:14;6.60;;;4.70;;
3355;SDS011;1691;52.486;13.374;2023-07-24T13:04:42;12.60;;;10.03;;
3355;SDS011;1691;52.486;13.374;2023-07-24T13:07:09;25.40;;;14.77;;
3355;SDS011;1691;52.486;13.374;2023-07-24T13:09:36;9.33;;;7.67;;
3355;SDS011;1691;52.486;13.374;2023-07-24T13:12:03;3.47;;;3.20;;
3355;SDS011;1691;52.486;13.374;2023-07-24T13:14:30;6.37;;;5.00;;
3355;SDS011;1691;52.486;13.374;2023-07-24T13:16:56;3.47;;;3.20;;
3355;SDS011;1691;52.486;13.374;2023-07-24T13:19:24;4.50;;;4.10;;
3355;SDS011;1691;52.486;13.374;2023-07-24T13:21:50;4.47;;;4.17;;
3355;SDS011;1691;52.486;13.374;2023-07-24T13:24:17;6.13;;;3.47;;
3355;SDS011;1691;52.486;13.374;2023-07-24T13:26:44;4.17;;;3.97;;
3355;SDS011;1691;52.486;13.374;2023-07-24T13:29:11;5.50;;;3.33;;
3355;SDS011;1691;52.486;13.374;2023-07-24T13:31:38;3.33;;;3.10;;
3355;SDS011;1691;52.486;13.374;2023-07-24T13:34:07;8.87;;;3.20;;
3355;SDS011;1691;52.486;13.374;2023-07-24T13:36:34;3.67;;;3.37;;
3355;SDS011;1691;52.486;13.374;2023-07-24T13:39:01;28.67;;;3.57;;
3355;SDS011;1691;52.486;13.374;2023-07-24T13:41:29;7.87;;;3.80;;
3355;SDS011;1691;52.486;13.374;2023-07-24T13:43:56;6.30;;;4.30;;
3355;SDS011;1691;52.486;13.374;2023-07-24T13:46:23;4.30;;;3.90;;
3355;SDS011;1691;52.486;13.374;2023-07-24T13:48:50;3.40;;;3.10;;
3355;SDS011;1691;52.486;13.374;2023-07-24T13:51:17;4.33;;;2.90;;
3355;SDS011;1691;52.486;13.374;2023-07-24T13:53:44;3.37;;;3.00;;
3355;SDS011;1691;52.486;13.374;2023-07-24T13:56:13;6.13;;;3.33;;
3355;SDS011;1691;52.486;13.374;2023-07-24T13:58:40;18.87;;;6.90;;
3355;SDS011;1691;52.486;13.374;2023-07-24T14:01:07;9.60;;;8.60;;
3355;SDS011;1691;52.486;13.374;2023-07-24T14:03:34;5.83;;;3.60;;
3355;SDS011;1691;52.486;13.374;2023-07-24T14:06:01;3.10;;;3.00;;
3355;SDS011;1691;52.486;13.374;2023-07-24T14:08:28;4.47;;;4.07;;
3355;SDS011;1691;52.486;13.374;2023-07-24T14:10:55;3.03;;;2.90;;
3355;SDS011;1691;52.486;13.374;2023-07-24T14:13:22;6.77;;;3.90;;
3355;SDS011;1691;52.486;13.374;2023-07-24T14:15:49;5.50;;;3.77;;
3355;SDS011;1691;52.486;13.374;2023-07-24T14:18:16;6.97;;;3.37;;
3355;SDS011;1691;52.486;13.374;2023-07-24T14:20:43;5.30;;;4.20;;
3355;SDS011;1691;52.486;13.374;2023-07-24T14:23:10;5.57;;;3.13;;
3355;SDS011;1691;52.486;13.374;2023-07-24T14:25:37;4.33;;;3.93;;
3355;SDS011;1691;52.486;13.374;2023-07-24T14:28:04;3.80;;;3.53;;
3355;SDS011;1691;52.486;13.374;2023-07-24T14:30:31;6.93;;;3.67;;
3355;SDS011;1691;52.486;13.374;2023-07-24T14:32:58;3.73;;;3.40;;
3355;SDS011;1691;52.486;13.374;2023-07-24T14:35:25;4.37;;;4.00;;
3355;SDS011;1691;52.486;13.374;2023-07-24T14:37:52;5.43;;;4.17;;
3355;SDS011;1691;52.486;13.374;2023-07-24T14:40:18;7.37;;;3.90;;
3355;SDS011;1691;52.486;13.374;2023-07-24T14:42:45;10.43;;;4.27;;
3355;SDS011;1691;52.486;13.374;2023-07-24T14:45:12;4.60;;;3.90;;
3355;SDS011;1691;52.486;13.374;2023-07-24T14:47:39;10.03;;;3.70;;
3355;SDS011;1691;52.486;13.374;2023-07-24T14:50:06;9.03;;;3.27;;
3355;SDS011;1691;52.486;13.374;2023-07-24T14:52:33;9.07;;;8.37;;
3355;SDS011;1691;52.486;13.374;2023-07-24T14:55:01;16.33;;;14.60;;
3355;SDS011;1691;52.486;13.374;2023-07-24T14:57:28;9.00;;;8.23;;
3355;SDS011;1691;52.486;13.374;2023-07-24T14:59:54;7.80;;;7.00;;
3355;SDS011;1691;52.486;13.374;2023-07-24T15:02:21;10.67;;;9.77;;
3355;SDS011;1691;52.486;13.374;2023-07-24T15:04:48;4.83;;;4.13;;
3355;SDS011;1691;52.486;13.374;2023-07-24T15:07:15;4.00;;;3.80;;
3355;SDS011;1691;52.486;13.374;2023-07-24T15:09:42;5.40;;;3.70;;
3355;SDS011;1691;52.486;13.374;2023-07-24T15:12:09;4.40;;;4.07;;
3355;SDS011;1691;52.486;13.374;2023-07-24T15:14:36;4.40;;;4.20;;
3355;SDS011;1691;52.486;13.374;2023-07-24T15:17:03;4.23;;;3.90;;
3355;SDS011;1691;52.486;13.374;2023-07-24T15:19:30;7.23;;;3.40;;
3355;SDS011;1691;52.486;13.374;2023-07-24T15:21:57;4.17;;;3.97;;
3355;SDS011;1691;52.486;13.374;2023-07-24T15:24:24;4.27;;;3.70;;
3355;SDS011;1691;52.486;13.374;2023-07-24T15:26:51;8.03;;;3.30;;
3355;SDS011;1691;52.486;13.374;2023-07-24T15:29:17;3.73;;;3.53;;
3355;SDS011;1691;52.486;13.374;2023-07-24T15:31:45;5.27;;;3.30;;
3355;SDS011;1691;52.486;13.374;2023-07-24T15:34:12;5.40;;;4.17;;
3355;SDS011;1691;52.486;13.374;2023-07-24T15:36:39;4.47;;;4.17;;
3355;SDS011;1691;52.486;13.374;2023-07-24T15:39:06;9.23;;;5.20;;
3355;SDS011;1691;52.486;13.374;2023-07-24T15:41:33;4.30;;;4.10;;
3355;SDS011;1691;52.486;13.374;2023-07-24T15:44:00;12.97;;;11.50;;
3355;SDS011;1691;52.486;13.374;2023-07-24T15:46:27;5.60;;;5.20;;
3355;SDS011;1691;52.486;13.374;2023-07-24T15:48:56;7.80;;;7.30;;
3355;SDS011;1691;52.486;13.374;2023-07-24T15:51:24;5.80;;;5.30;;
3355;SDS011;1691;52.486;13.374;2023-07-24T15:53:52;5.87;;;4.57;;
3355;SDS011;1691;52.486;13.374;2023-07-24T15:56:20;4.47;;;4.10;;
3355;SDS011;1691;52.486;13.374;2023-07-24T15:58:48;4.10;;;3.87;;